Time;durP1;ratioP1;P1;durP2;ratioP2;P2;SDS_P1;SDS_P2;PMS_P1;PMS_P2;Temp;Humidity;BMP_temperature;BMP_pressure;BME280_temperature;BME280_humidity;BME280_pressure;Samples;Min_cycle;Max_cycle;Signal;HPM_P1;HPM_P2
2023/10/10 00:02:20;;;;;;;17.27;13.27;;;;;;;-145.18;100.00;46640.88;5025305;28;20087;-60
2023/10/10 00:04:47;;;;;;;19.23;13.30;;;;;;;-145.18;100.00;46636.94;5028316;28;20074;-60
2023/10/10 00:07:14;;;;;;;16.53;13.03;;;;;;;-145.18;100.00;46642.81;5025913;28;20026;-60
2023/10/10 00:09:43;;;;;;;16.43;12.57;;;;;;;-145.18;100.00;46642.81;5032026;28;20036;-60
2023/10/10 00:12:09;;;;;;;19.93;13.00;;;;;;;-145.18;100.00;46638.91;5030111;28;20060;-60
2023/10/10 00:14:35;;;;;;;20.87;13.93;;;;;;;-145.18;100.00;46646.72;5028045;28;20416;-60
2023/10/10 00:17:00;;;;;;;20.60;14.43;;;;;;;-145.18;100.00;46642.81;5026165;28;20327;-60
2023/10/10 00:19:37;;;;;;;18.33;12.33;;;;;;;-145.18;100.00;46646.72;5027390;28;20097;-60
2023/10/10 00:22:05;;;;;;;20.07;13.83;;;;;;;-145.18;100.00;46644.78;5022432;28;20489;-60
2023/10/10 00:24:31;;;;;;;21.00;13.63;;;;;;;-145.18;100.00;46644.78;5027587;28;20587;-60
2023/10/10 00:27:23;;;;;;;23.60;14.70;;;;;;;-145.18;100.00;46644.78;5022722;28;20121;-60
2023/10/10 00:29:47;;;;;;;21.40;14.20;;;;;;;-145.18;100.00;46642.81;5019964;28;20065;-60
2023/10/10 00:32:17;;;;;;;21.13;15.70;;;;;;;-145.18;100.00;46640.88;5020382;28;20557;-60
2023/10/10 00:34:47;;;;;;;29.43;15.90;;;;;;;-145.18;100.00;46638.91;5020447;28;20069;-59
2023/10/10 00:37:21;;;;;;;25.43;14.90;;;;;;;-145.18;100.00;46642.81;5023330;28;20496;-60
2023/10/10 00:39:52;;;;;;;21.00;15.00;;;;;;;-145.18;100.00;46638.91;5029156;28;20049;-60
2023/10/10 00:42:36;;;;;;;31.23;15.70;;;;;;;-145.18;100.00;46644.78;5026875;28;20029;-60
2023/10/10 00:45:09;;;;;;;20.17;14.77;;;;;;;-145.18;100.00;46636.94;5020677;28;20076;-60
2023/10/10 00:47:39;;;;;;;22.47;14.83;;;;;;;-145.18;100.00;46638.91;5023425;28;20030;-60
2023/10/10 00:50:13;;;;;;;44.77;14.33;;;;;;;-145.18;100.00;46644.78;5020875;28;20351;-60
2023/10/10 00:52:41;;;;;;;47.03;14.43;;;;;;;-145.18;100.00;46646.72;5021091;28;20053;-60
2023/10/10 00:55:09;;;;;;;26.70;15.60;;;;;;;-145.18;100.00;46642.81;5020220;28;20456;-60
2023/10/10 00:57:35;;;;;;;25.97;15.30;;;;;;;-145.18;100.00;46648.69;5020581;28;20026;-60
2023/10/10 01:00:10;;;;;;;22.67;15.87;;;;;;;-145.18;100.00;46646.72;5027629;28;20556;-60
2023/10/10 01:02:37;;;;;;;23.50;16.23;;;;;;;-145.18;100.00;46644.78;5023146;28;20061;-60
2023/10/10 01:05:12;;;;;;;23.35;16.35;;;;;;;-145.18;100.00;46648.69;5020436;28;20440;-60
2023/10/10 01:07:47;;;;;;;19.57;15.13;;;;;;;-145.18;100.00;46642.81;5026503;28;20230;-60
2023/10/10 01:10:16;;;;;;;21.83;14.27;;;;;;;-145.18;100.00;46644.78;5028319;28;20378;-60
2023/10/10 01:12:43;;;;;;;22.27;15.47;;;;;;;-145.18;100.00;46648.69;5023848;28;20051;-60
2023/10/10 01:15:14;;;;;;;25.60;14.90;;;;;;;-145.18;100.00;46648.69;5024453;28;20040;-60
2023/10/10 01:17:44;;;;;;;29.07;15.37;;;;;;;-145.18;100.00;46644.78;5021684;28;20075;-60
2023/10/10 01:22:40;;;;;;;18.57;14.23;;;;;;;-145.18;100.00;46644.78;5025738;28;20037;-60
2023/10/10 01:25:31;;;;;;;20.73;13.90;;;;;;;-145.18;100.00;46640.88;5030054;28;20065;-60
2023/10/10 01:27:54;;;;;;;26.52;14.02;;;;;;;-145.18;100.00;46642.81;5026576;28;20037;-60
2023/10/10 01:30:43;;;;;;;22.53;14.43;;;;;;;-145.18;100.00;46642.81;5031155;28;20501;-60
2023/10/10 01:33:06;;;;;;;17.50;13.43;;;;;;;-145.18;100.00;46642.81;5019646;28;20105;-60
2023/10/10 01:35:40;;;;;;;22.03;13.40;;;;;;;-145.18;100.00;46640.88;5025133;28;20112;-60
2023/10/10 01:38:22;;;;;;;30.43;15.13;;;;;;;-145.18;100.00;46642.81;5027859;28;20053;-60
2023/10/10 01:40:48;;;;;;;27.07;16.03;;;;;;;-145.18;100.00;46640.88;5032322;28;20485;-60
2023/10/10 01:43:17;;;;;;;29.57;16.57;;;;;;;-145.18;100.00;46638.91;5022574;28;20041;-60
2023/10/10 01:45:43;;;;;;;24.93;18.03;;;;;;;-145.18;100.00;46638.91;5020879;28;20148;-60
2023/10/10 01:48:11;;;;;;;27.57;17.63;;;;;;;-145.18;100.00;46636.94;5023341;28;20029;-60
2023/10/10 01:50:36;;;;;;;27.20;17.77;;;;;;;-145.18;100.00;46638.91;5020534;28;20025;-60
2023/10/10 01:53:05;;;;;;;30.13;18.17;;;;;;;-145.18;100.00;46660.41;5028679;28;20128;-60
2023/10/10 01:55:31;;;;;;;28.20;17.27;;;;;;;-145.18;100.00;46633.06;5030166;28;20060;-60
2023/10/10 01:58:02;;;;;;;28.67;19.07;;;;;;;-145.18;100.00;46660.41;5027502;28;20378;-60
2023/10/10 02:00:27;;;;;;;27.73;17.33;;;;;;;-145.18;100.00;46660.41;5027712;28;20026;-60
2023/10/10 02:02:56;;;;;;;30.00;17.53;;;;;;;-145.18;100.00;46633.06;5028261;28;20030;-60
2023/10/10 02:08:04;;;;;;;36.37;18.50;;;;;;;-145.18;100.00;46660.41;5019932;28;20109;-60
2023/10/10 02:10:30;;;;;;;30.13;18.87;;;;;;;-145.18;100.00;46638.91;5023578;28;20113;-60
2023/10/10 02:13:05;;;;;;;34.60;19.30;;;;;;;-145.18;100.00;46660.41;5020207;28;20033;-60
2023/10/10 02:15:34;;;;;;;28.85;18.65;;;;;;;-145.18;100.00;46633.06;5025851;28;20535;-60
2023/10/10 02:18:12;;;;;;;34.30;19.00;;;;;;;-145.18;100.00;46633.06;5023195;28;20063;-61
2023/10/10 02:25:55;;;;;;;42.10;18.67;;;;;;;-145.18;100.00;46638.91;5017023;28;20029;-65
2023/10/10 02:28:22;;;;;;;33.60;19.83;;;;;;;-145.18;100.00;46660.41;5016413;28;20029;-64
2023/10/10 02:30:52;;;;;;;36.20;21.17;;;;;;;-145.18;100.00;46635.00;5020044;28;20030;-64
2023/10/10 02:35:56;;;;;;;30.47;20.43;;;;;;;-145.18;100.00;46635.00;5023245;28;20029;-65
2023/10/10 02:38:35;;;;;;;35.23;19.37;;;;;;;-145.18;100.00;46636.94;5017320;28;20029;-64
2023/10/10 02:43:46;;;;;;;32.22;19.25;;;;;;;-145.18;100.00;46660.41;5027901;28;20025;-65
2023/10/10 02:46:17;;;;;;;26.70;18.13;;;;;;;-145.18;100.00;46633.06;5031976;28;20033;-65
2023/10/10 02:48:44;;;;;;;26.73;19.73;;;;;;;-145.18;100.00;46633.06;5031663;28;20022;-65
2023/10/10 02:51:15;;;;;;;25.47;19.70;;;;;;;-145.18;100.00;46633.06;5030982;28;20569;-65
2023/10/10 02:53:46;;;;;;;28.47;20.37;;;;;;;-145.18;100.00;46635.00;5031421;28;20025;-65
2023/10/10 02:56:19;;;;;;;28.43;18.97;;;;;;;-145.18;100.00;46635.00;5031403;28;20022;-64
2023/10/10 02:58:45;;;;;;;26.47;18.67;;;;;;;-145.18;100.00;46660.41;5030244;28;20048;-65
2023/10/10 03:01:30;;;;;;;27.03;19.43;;;;;;;-145.18;100.00;46633.06;5027754;28;20497;-64
2023/10/10 03:03:55;;;;;;;24.17;17.63;;;;;;;-145.18;100.00;46633.06;5018943;28;20036;-65
2023/10/10 03:06:28;;;;;;;31.70;18.00;;;;;;;-145.18;100.00;46636.94;5023911;28;20025;-64
2023/10/10 03:09:06;;;;;;;27.30;19.20;;;;;;;-145.18;100.00;46636.94;5029457;28;20528;-65
2023/10/10 03:11:52;;;;;;;34.90;18.70;;;;;;;-145.18;100.00;46635.00;5024644;28;20107;-64
2023/10/10 03:14:26;;;;;;;;;;;;;;;-145.18;100.00;46638.91;5027179;28;20029;-64
2023/10/10 03:17:06;;;;;;;29.37;19.40;;;;;;;-145.18;100.00;46640.88;5029566;28;20011;-65
2023/10/10 03:19:38;;;;;;;28.43;20.07;;;;;;;-145.18;100.00;46633.06;5029322;28;20049;-65
2023/10/10 03:22:28;;;;;;;30.53;19.33;;;;;;;-145.18;100.00;46638.91;5032437;28;20052;-65
2023/10/10 03:25:20;;;;;;;30.93;20.20;;;;;;;-145.18;100.00;46636.94;5030200;28;20563;-64
2023/10/10 03:27:54;;;;;;;41.23;20.83;;;;;;;-145.18;100.00;46640.88;5026275;28;20037;-64
2023/10/10 03:30:34;;;;;;;30.33;20.20;;;;;;;-145.18;100.00;46638.91;5029426;28;20100;-65
2023/10/10 03:33:08;;;;;;;29.53;19.97;;;;;;;-145.18;100.00;46638.91;5018269;28;20041;-60
2023/10/10 03:35:52;;;;;;;30.03;21.23;;;;;;;-145.18;100.00;46640.88;5010337;28;20037;-60
2023/10/10 03:39:14;;;;;;;39.07;21.50;;;;;;;-145.18;100.00;46635.00;5029888;28;20026;-60
2023/10/10 05:23:29;;;;;;;36.00;22.13;;;;;;;-145.18;100.00;46640.88;5019807;28;20049;-60
2023/10/10 05:25:22;;;;;;;43.20;27.50;;;;;;;-145.18;100.00;46635.00;5029765;28;20103;-64
2023/10/10 05:27:48;;;;;;;48.53;28.20;;;;;;;-145.18;100.00;46635.00;5040513;28;20037;-65
2023/10/10 05:30:23;;;;;;;50.43;29.50;;;;;;;-145.18;100.00;46660.41;5031200;28;20033;-64
2023/10/10 05:33:00;;;;;;;47.60;28.47;;;;;;;-145.18;100.00;46638.91;5035412;28;20036;-64
2023/10/10 05:35:40;;;;;;;43.67;28.33;;;;;;;-145.18;100.00;46631.09;5032977;28;20405;-64
2023/10/10 05:38:09;;;;;;;51.23;29.70;;;;;;;-145.18;100.00;46635.00;5025373;28;20114;-64
2023/10/10 05:40:38;;;;;;;51.47;29.60;;;;;;;-145.18;100.00;46660.41;5028026;28;20151;-64
2023/10/10 05:43:09;;;;;;;55.77;32.23;;;;;;;-145.18;100.00;46633.06;5026594;28;20041;-64
2023/10/10 05:45:38;;;;;;;54.67;32.87;;;;;;;-145.18;100.00;46635.00;5029487;28;20034;-65
2023/10/10 05:48:05;;;;;;;54.30;31.40;;;;;;;-145.18;100.00;46635.00;5024595;28;20045;-65
2023/10/10 05:50:32;;;;;;;64.17;34.03;;;;;;;-145.18;100.00;46633.06;5029484;28;20515;-65
2023/10/10 05:53:00;;;;;;;57.87;32.57;;;;;;;-145.18;100.00;46660.41;5028111;28;20029;-60
2023/10/10 05:55:28;;;;;;;58.53;32.37;;;;;;;-145.18;100.00;46633.06;5028557;28;20059;-60
2023/10/10 05:57:57;;;;;;;61.97;33.17;;;;;;;-145.18;100.00;46660.41;5029728;28;20062;-60
2023/10/10 06:00:25;;;;;;;53.37;32.07;;;;;;;-145.18;100.00;46660.41;5027758;28;20409;-61
2023/10/10 06:02:51;;;;;;;56.07;32.30;;;;;;;-145.18;100.00;46633.06;5029417;28;20481;-60
2023/10/10 06:05:17;;;;;;;64.87;33.07;;;;;;;-145.18;100.00;46660.41;5026365;28;20032;-60
2023/10/10 06:07:43;;;;;;;61.90;32.33;;;;;;;-145.18;100.00;46660.41;5031575;28;20026;-60
2023/10/10 06:10:17;;;;;;;53.17;32.27;;;;;;;-145.18;100.00;46660.41;5027382;28;20425;-60
2023/10/10 06:12:44;;;;;;;58.03;32.80;;;;;;;-145.18;100.00;46660.41;5029701;28;20064;-60
2023/10/10 06:15:11;;;;;;;58.47;32.83;;;;;;;-145.18;100.00;46635.00;5028359;28;20063;-60
2023/10/10 06:17:38;;;;;;;57.40;29.93;;;;;;;-145.18;100.00;46629.13;5031083;28;20425;-60
2023/10/10 06:20:08;;;;;;;57.17;31.57;;;;;;;-145.18;100.00;46660.41;5031599;28;20678;-61
2023/10/10 06:22:34;;;;;;;62.00;32.57;;;;;;;-145.18;100.00;46660.41;5027091;28;20420;-60
2023/10/10 06:24:59;;;;;;;53.63;30.80;;;;;;;-145.18;100.00;46629.13;5019133;28;20128;-61
2023/10/10 06:27:36;;;;;;;62.40;31.97;;;;;;;-145.18;100.00;46660.41;5026973;28;20034;-60
2023/10/10 06:30:06;;;;;;;54.73;29.67;;;;;;;-145.18;100.00;46660.41;5027368;28;20102;-61
2023/10/10 06:32:31;;;;;;;55.33;31.57;;;;;;;-145.18;100.00;46627.19;5028727;28;20033;-61
2023/10/10 06:37:45;;;;;;;53.37;30.93;;;;;;;-145.18;100.00;46629.13;5021317;28;20041;-61
2023/10/10 06:40:11;;;;;;;60.93;31.00;;;;;;;-145.18;100.00;46631.09;5026650;28;20057;-60
2023/10/10 06:42:37;;;;;;;56.93;31.63;;;;;;;-145.18;100.00;46627.19;5026633;28;20064;-60
2023/10/10 06:45:11;;;;;;;55.60;31.13;;;;;;;-145.18;100.00;46633.06;5030886;28;20026;-60
2023/10/10 06:47:43;;;;;;;58.10;33.40;;;;;;;-145.18;100.00;46627.19;5020205;28;20079;-60
2023/10/10 06:50:12;;;;;;;55.90;31.60;;;;;;;-145.18;100.00;46627.19;5026884;28;20033;-61
2023/10/10 06:52:38;;;;;;;58.63;33.00;;;;;;;-145.18;100.00;46627.19;5022610;28;20043;-61
2023/10/10 06:55:10;;;;;;;59.83;32.37;;;;;;;-145.18;100.00;46627.19;5021291;28;20026;-61
2023/10/10 06:57:38;;;;;;;59.80;32.77;;;;;;;-145.18;100.00;46623.28;5022262;28;20028;-61
2023/10/10 07:00:21;;;;;;;57.73;31.53;;;;;;;-145.18;100.00;46627.19;5020022;28;20029;-61
2023/10/10 07:02:53;;;;;;;59.70;32.37;;;;;;;-145.18;100.00;46631.09;5030406;28;20025;-60
2023/10/10 07:05:26;;;;;;;52.73;29.60;;;;;;;-145.18;100.00;46621.31;5024346;28;20053;-60
2023/10/10 07:07:57;;;;;;;53.73;30.13;;;;;;;-145.18;100.00;46629.13;5029400;28;20033;-60
2023/10/10 07:10:32;;;;;;;58.17;32.63;;;;;;;-145.18;100.00;46627.19;5021786;28;20040;-60
2023/10/10 07:12:58;;;;;;;60.20;31.42;;;;;;;-145.18;100.00;46627.19;5026491;28;20042;-63
2023/10/10 07:15:34;;;;;;;55.00;31.67;;;;;;;-145.18;100.00;46625.22;5024136;28;20029;-60
2023/10/10 07:18:13;;;;;;;62.57;33.50;;;;;;;-145.18;100.00;46627.19;5023574;28;20038;-60
2023/10/10 07:23:24;;;;;;;58.47;31.60;;;;;;;-145.18;100.00;46627.19;5021298;28;20132;-60
2023/10/10 07:25:59;;;;;;;56.47;30.63;;;;;;;-145.18;100.00;46627.19;5022871;28;20116;-60
2023/10/10 07:28:26;;;;;;;53.50;31.08;;;;;;;-145.18;100.00;46625.22;5022515;28;20045;-60
2023/10/10 07:30:55;;;;;;;56.97;31.63;;;;;;;-145.18;100.00;46627.19;5022787;28;20030;-61
2023/10/10 07:33:29;;;;;;;51.23;30.27;;;;;;;-145.18;100.00;46623.28;5023662;28;20021;-60
2023/10/10 07:35:55;;;;;;;57.50;30.83;;;;;;;-145.18;100.00;46621.31;5021918;28;20500;-61
2023/10/10 07:38:27;;;;;;;57.33;30.13;;;;;;;-145.18;100.00;46619.38;5017892;28;20049;-60
2023/10/10 07:40:53;;;;;;;54.57;31.00;;;;;;;-145.18;100.00;46621.31;5011666;28;20057;-60
2023/10/10 07:43:20;;;;;;;53.23;29.77;;;;;;;-145.18;100.00;46623.28;5028551;28;20685;-60
2023/10/10 07:45:45;;;;;;;52.63;29.17;;;;;;;-145.18;100.00;46619.38;5031011;28;20578;-60
2023/10/10 07:50:49;;;;;;;61.90;32.63;;;;;;;-145.18;100.00;46619.38;5026413;28;20057;-60
2023/10/10 07:53:15;;;;;;;45.27;29.23;;;;;;;-145.18;100.00;46621.31;5027929;28;20381;-60
2023/10/10 07:58:24;;;;;;;58.57;31.87;;;;;;;-145.18;100.00;46617.41;5030949;28;20017;-60
2023/10/10 08:00:52;;;;;;;53.10;31.87;;;;;;;-145.18;100.00;46619.38;5030272;28;20029;-60
2023/10/10 08:03:20;;;;;;;53.07;31.13;;;;;;;-145.18;100.00;46619.38;5032881;28;20075;-60
2023/10/10 08:05:50;;;;;;;55.30;31.30;;;;;;;-145.18;100.00;46621.31;5034830;28;20496;-61
2023/10/10 08:08:17;;;;;;;49.30;29.27;;;;;;;-145.18;100.00;46619.38;5033885;28;20025;-60
2023/10/10 08:10:46;;;;;;;48.33;28.00;;;;;;;-145.18;100.00;46617.41;5034590;28;20430;-61
2023/10/10 08:13:11;;;;;;;48.77;28.87;;;;;;;-145.18;100.00;46621.31;5034560;28;20021;-65
2023/10/10 08:16:01;;;;;;;53.13;29.53;;;;;;;-145.18;100.00;46623.28;5033268;28;20474;-65
2023/10/10 08:18:52;;;;;;;47.87;29.10;;;;;;;-145.18;100.00;46623.28;5029365;28;20104;-65
2023/10/10 08:21:22;;;;;;;51.27;28.73;;;;;;;-145.18;100.00;46619.38;5027744;28;20028;-65
2023/10/10 08:23:49;;;;;;;49.10;28.80;;;;;;;-145.18;100.00;46623.28;5027554;28;20037;-65
2023/10/10 08:26:24;;;;;;;52.83;28.83;;;;;;;-145.18;100.00;46623.28;5034169;28;20041;-65
2023/10/10 08:28:50;;;;;;;52.40;29.92;;;;;;;-145.18;100.00;46627.19;5028398;28;20037;-65
2023/10/10 08:31:16;;;;;;;45.43;27.73;;;;;;;-145.18;100.00;46629.13;5033353;28;20374;-65
2023/10/10 08:33:46;;;;;;;45.63;26.07;;;;;;;-145.18;100.00;46627.19;5034243;28;20053;-65
2023/10/10 08:36:25;;;;;;;47.23;28.77;;;;;;;-145.18;100.00;46625.22;5033673;28;20401;-65
2023/10/10 08:38:55;;;;;;;45.37;28.27;;;;;;;-145.18;100.00;46629.13;5034155;28;20452;-65
2023/10/10 08:41:25;;;;;;;52.97;28.00;;;;;;;-145.18;100.00;46635.00;5033580;28;20524;-65
2023/10/10 08:43:57;;;;;;;51.37;27.77;;;;;;;-145.18;100.00;46638.91;5033437;28;20067;-65
2023/10/10 08:46:29;;;;;;;43.00;28.77;;;;;;;-145.18;100.00;46638.91;5033814;28;20083;-65
2023/10/10 08:48:57;;;;;;;45.67;27.97;;;;;;;-145.18;100.00;46635.00;5033934;28;20030;-65
2023/10/10 08:51:22;;;;;;;44.50;26.47;;;;;;;-145.18;100.00;46638.91;5034131;28;20045;-65
2023/10/10 08:53:50;;;;;;;43.63;26.43;;;;;;;-145.18;100.00;46642.81;5033696;28;20035;-65
2023/10/10 08:56:16;;;;;;;44.13;26.27;;;;;;;-145.18;100.00;46644.78;5033868;28;20037;-65
2023/10/10 08:58:42;;;;;;;43.17;26.47;;;;;;;-145.18;100.00;46648.69;5033419;28;20029;-65
2023/10/10 09:01:08;;;;;;;41.60;23.73;;;;;;;-145.18;100.00;46648.69;5033486;28;20029;-65
2023/10/10 09:03:34;;;;;;;43.33;26.07;;;;;;;-145.18;100.00;46648.69;5033696;28;20061;-65
2023/10/10 09:06:13;;;;;;;38.37;24.30;;;;;;;-145.18;100.00;46648.69;5033257;28;20777;-65
2023/10/10 09:08:43;;;;;;;40.23;24.30;;;;;;;-145.18;100.00;46652.59;5033579;28;20186;-65
2023/10/10 09:11:09;;;;;;;38.63;23.73;;;;;;;-145.18;100.00;46652.59;5033377;28;20040;-66
2023/10/10 09:13:48;;;;;;;42.50;22.97;;;;;;;-145.18;100.00;46664.31;5032719;28;20029;-65
2023/10/10 09:16:13;;;;;;;37.90;23.63;;;;;;;-145.18;100.00;46666.25;5032046;28;20025;-65
2023/10/10 09:18:39;;;;;;;38.73;21.27;;;;;;;-145.18;100.00;46668.22;5032725;28;20045;-65
2023/10/10 09:21:18;;;;;;;35.20;21.33;;;;;;;-145.18;100.00;46666.25;5031695;28;20041;-65
2023/10/10 09:23:52;;;;;;;39.83;23.40;;;;;;;-145.18;100.00;46668.22;5033352;28;20115;-65
2023/10/10 09:28:58;;;;;;;36.00;21.10;;;;;;;-145.18;100.00;46676.03;5033017;28;20052;-65
2023/10/10 09:31:30;;;;;;;32.83;19.97;;;;;;;-145.18;100.00;46674.06;5032781;28;20033;-65
2023/10/10 09:33:56;;;;;;;35.33;20.37;;;;;;;-145.18;100.00;46677.97;5032673;28;20064;-65
2023/10/10 09:36:27;;;;;;;32.60;20.53;;;;;;;-145.18;100.00;46679.94;5033197;28;20061;-65
2023/10/10 09:39:09;;;;;;;34.00;19.23;;;;;;;-145.18;100.00;46681.88;5032424;28;20393;-65
2023/10/10 09:49:43;;;;;;;30.87;19.00;;;;;;;-145.18;100.00;46689.69;5032782;28;20037;-65
2023/10/10 10:03:43;;;;;;;28.37;17.40;;;;;;;-145.18;100.00;46701.41;5032284;28;20036;-65
2023/10/10 10:09:17;;;;;;;27.73;17.23;;;;;;;-145.18;100.00;46664.31;5022225;28;20025;-65
2023/10/10 10:12:30;;;;;;;31.77;17.87;;;;;;;-145.18;100.00;46625.22;5031035;28;20039;-66
2023/10/10 10:15:18;;;;;;;29.53;17.30;;;;;;;-145.18;100.00;46593.97;5030700;28;20056;-65
2023/10/10 10:17:54;;;;;;;31.53;18.60;;;;;;;-145.18;100.00;46576.41;5018923;28;20032;-65
2023/10/10 10:20:47;;;;;;;31.00;17.13;;;;;;;-145.18;100.00;46578.34;5032184;28;20140;-65
2023/10/10 10:23:33;;;;;;;35.17;18.33;;;;;;;-145.18;100.00;46590.06;5032056;28;20053;-65
2023/10/10 10:26:04;;;;;;;;;;;;;;;-145.18;100.00;46586.16;5029172;28;20107;-65
2023/10/10 10:28:36;;;;;;;30.53;17.77;;;;;;;-145.18;100.00;46574.44;5031895;28;19921;-65
2023/10/10 10:31:05;;;;;;;28.63;16.90;;;;;;;-145.18;100.00;46574.44;5031768;28;20504;-65
2023/10/10 10:33:33;;;;;;;28.87;18.03;;;;;;;-145.18;100.00;46578.34;5031393;28;20402;-61
2023/10/10 10:36:06;;;;;;;31.93;17.87;;;;;;;-145.18;100.00;46568.59;5028749;28;20033;-61
2023/10/10 10:38:33;;;;;;;32.87;17.70;;;;;;;-145.18;100.00;46566.63;5031735;28;20021;-61
2023/10/10 10:41:07;;;;;;;32.87;17.23;;;;;;;-145.18;100.00;46568.59;5031044;28;20029;-61
2023/10/10 10:43:38;;;;;;;32.40;18.33;;;;;;;-145.18;100.00;46570.53;5024284;28;20033;-61
2023/10/10 10:46:15;;;;;;;30.30;17.30;;;;;;;-145.18;100.00;46570.53;5028748;28;20030;-61
2023/10/10 10:48:47;;;;;;;29.33;16.77;;;;;;;-145.18;100.00;46562.72;5025210;28;20029;-61
2023/10/10 10:51:23;;;;;;;33.37;17.77;;;;;;;-145.18;100.00;46580.31;5031461;28;20029;-61
2023/10/10 10:53:58;;;;;;;30.23;16.23;;;;;;;-145.18;100.00;46568.59;5031194;28;20021;-61
2023/10/10 10:59:21;;;;;;;25.63;16.05;;;;;;;-145.18;100.00;46578.34;5031579;28;20029;-61
2023/10/10 11:01:51;;;;;;;26.57;16.17;;;;;;;-145.18;100.00;46576.41;5033649;28;20037;-61
2023/10/10 11:04:40;;;;;;;33.90;17.70;;;;;;;-145.18;100.00;46574.44;5031245;28;20413;-61
2023/10/10 11:07:07;;;;;;;25.13;15.63;;;;;;;-145.18;100.00;46578.34;5024544;28;20073;-61
2023/10/10 11:09:36;;;;;;;28.87;17.03;;;;;;;-145.18;100.00;46582.25;5030842;28;20034;-61
2023/10/10 11:12:04;;;;;;;28.00;16.70;;;;;;;-145.18;100.00;46582.25;5030828;28;20048;-61
2023/10/10 11:14:35;;;;;;;30.60;16.17;;;;;;;-145.18;100.00;46566.63;5031087;28;20789;-61
2023/10/10 11:17:01;;;;;;;29.17;16.43;;;;;;;-145.18;100.00;46572.50;5030999;28;20037;-61
2023/10/10 11:21:55;;;;;;;29.77;16.77;;;;;;;-145.18;100.00;46562.72;5031495;28;20081;-61
2023/10/10 11:24:24;;;;;;;26.07;16.77;;;;;;;-145.18;100.00;46572.50;5030816;28;20103;-61
2023/10/10 11:27:07;;;;;;;24.97;14.67;;;;;;;-145.18;100.00;46566.63;5032171;28;20060;-61
2023/10/10 11:29:43;;;;;;;28.67;15.43;;;;;;;-145.18;100.00;46570.53;5030246;28;20095;-61
2023/10/10 11:32:11;;;;;;;26.23;16.27;;;;;;;-145.18;100.00;46586.16;5024238;28;20052;-61
2023/10/10 11:34:44;;;;;;;29.60;16.63;;;;;;;-145.18;100.00;46572.50;5030584;28;20025;-61
2023/10/10 11:37:20;;;;;;;28.33;16.40;;;;;;;-145.18;100.00;46551.00;5030630;28;20033;-61
2023/10/10 11:39:57;;;;;;;27.85;15.55;;;;;;;-145.18;100.00;46582.25;5035427;28;20418;-61
2023/10/10 11:42:26;;;;;;;27.67;15.75;;;;;;;-145.18;100.00;46574.44;5034688;28;20029;-62
2023/10/10 11:45:04;;;;;;;23.95;15.55;;;;;;;-145.18;100.00;46568.59;5035180;28;20033;-61
2023/10/10 11:47:31;;;;;;;28.95;14.93;;;;;;;-145.18;100.00;46564.69;5031479;28;20405;-61
2023/10/10 11:50:01;;;;;;;25.00;15.13;;;;;;;-145.18;100.00;46597.88;5035084;28;20424;-61
2023/10/10 11:52:29;;;;;;;24.30;14.85;;;;;;;-145.18;100.00;46588.13;5035223;28;20055;-61
2023/10/10 11:54:58;;;;;;;24.48;13.32;;;;;;;-145.18;100.00;47088.19;5034782;28;20382;-61
2023/10/10 11:57:26;;;;;;;25.25;14.02;;;;;;;-145.18;100.00;47162.44;5035655;28;20044;-61
2023/10/10 11:59:55;;;;;;;22.27;12.38;;;;;;;-145.18;100.00;47123.38;5038088;28;20034;-61
2023/10/10 12:02:29;;;;;;;26.25;14.18;;;;;;;-145.18;100.00;47097.97;5033784;28;20048;-61
2023/10/10 12:04:55;;;;;;;19.45;11.38;;;;;;;-145.18;100.00;47056.94;5024841;28;20083;-61
2023/10/10 12:07:24;;;;;;;21.88;13.68;;;;;;;-145.18;100.00;47039.34;5033729;28;20033;-61
2023/10/10 12:09:55;;;;;;;23.55;13.45;;;;;;;-145.18;100.00;47031.53;5034438;28;20026;-61
2023/10/10 12:12:20;;;;;;;24.70;12.40;;;;;;;-145.18;100.00;47025.69;5034514;28;20037;-61
2023/10/10 12:14:46;;;;;;;22.80;11.82;;;;;;;-145.18;100.00;46984.66;5034365;28;20048;-61
2023/10/10 12:17:13;;;;;;;25.85;13.30;;;;;;;-145.18;100.00;46976.84;5034244;28;20045;-61
2023/10/10 12:19:43;;;;;;;20.40;11.40;;;;;;;-145.18;100.00;46976.84;5034325;28;20126;-62
2023/10/10 12:22:10;;;;;;;16.77;10.95;;;;;;;-145.18;100.00;46953.41;5033559;28;20029;-61
2023/10/10 12:24:39;;;;;;;20.90;11.38;;;;;;;-145.18;100.00;46957.31;5034148;28;20406;-61
2023/10/10 12:27:08;;;;;;;20.15;11.45;;;;;;;-145.18;100.00;46941.69;5033669;28;20051;-61
2023/10/10 12:29:40;;;;;;;18.27;11.23;;;;;;;-145.18;100.00;46894.81;5026650;28;20029;-61
2023/10/10 12:32:15;;;;;;;21.27;11.63;;;;;;;-145.18;9.55;46906.53;5033545;28;20568;-61
2023/10/10 12:34:45;;;;;;;21.02;11.60;;;;;;;-145.18;9.43;46910.44;5033191;28;20508;-62
2023/10/10 12:37:12;;;;;;;22.67;11.13;;;;;;;-145.18;0.00;46885.03;5032730;28;20087;-61
2023/10/10 12:39:37;;;;;;;23.15;11.10;;;;;;;-145.18;0.00;46890.91;5034151;28;20021;-61
2023/10/10 12:42:03;;;;;;;18.65;9.55;;;;;;;-145.18;0.00;46877.22;5033418;28;20048;-61
2023/10/10 12:44:29;;;;;;;14.18;9.00;;;;;;;-145.18;0.00;46924.09;5033328;28;20079;-61
2023/10/10 12:46:54;;;;;;;14.95;8.70;;;;;;;-145.18;0.00;46902.63;5032777;28;20042;-61
2023/10/10 12:49:29;;;;;;;20.55;9.80;;;;;;;-145.18;0.00;46867.44;5033394;28;20057;-61
2023/10/10 12:51:57;;;;;;;18.75;10.73;;;;;;;-145.18;0.00;46845.97;5033086;28;20440;-61
2023/10/10 12:54:27;;;;;;;18.92;9.02;;;;;;;-145.18;0.00;46818.63;5033629;28;20027;-61
2023/10/10 12:57:01;;;;;;;17.52;8.25;;;;;;;-145.18;0.00;46810.81;5040904;28;20029;-61
2023/10/10 12:59:28;;;;;;;18.98;8.82;;;;;;;-145.18;0.00;46822.53;5033219;28;20032;-61
2023/10/10 13:02:00;;;;;;;14.48;9.02;;;;;;;-145.18;0.00;46812.75;5033190;28;20029;-61
2023/10/10 13:04:36;;;;;;;16.77;8.60;;;;;;;-145.18;0.00;46804.94;5032810;28;20046;-62
2023/10/10 13:07:04;;;;;;;14.98;7.15;;;;;;;-145.18;0.00;46791.28;5032524;28;20040;-61
2023/10/10 13:09:35;;;;;;;13.38;7.32;;;;;;;-145.18;0.00;46845.97;5032736;28;20435;-61
2023/10/10 13:12:02;;;;;;;15.80;6.95;;;;;;;-145.18;0.00;46949.50;5042107;28;20461;-62
2023/10/10 13:14:32;;;;;;;15.45;7.05;;;;;;;-145.18;0.00;46820.56;5032926;28;20033;-61
2023/10/10 13:19:58;;;;;;;14.38;7.25;;;;;;;-145.18;0.00;46799.09;4991002;28;20117;-61
2023/10/10 13:22:24;;;;;;;11.65;6.20;;;;;;;-145.18;0.00;46808.84;5017153;28;20085;-61
2023/10/10 13:24:49;;;;;;;11.75;5.90;;;;;;;-145.18;0.00;46890.91;5032278;28;20057;-61
2023/10/10 13:27:15;;;;;;;12.63;6.43;;;;;;;-145.18;0.00;46928.00;5032890;28;20036;-61
2023/10/10 13:29:41;;;;;;;15.85;6.00;;;;;;;-145.18;0.00;46906.53;5023676;28;20041;-61
2023/10/10 13:32:06;;;;;;;12.52;6.20;;;;;;;-145.18;0.00;46918.25;5032015;28;20393;-61
2023/10/10 13:34:32;;;;;;;12.68;6.13;;;;;;;-145.18;0.00;46900.66;5031568;28;20033;-61
2023/10/10 13:36:57;;;;;;;21.75;6.07;;;;;;;-145.18;0.00;46928.00;5032026;28;20079;-61
2023/10/10 13:39:33;;;;;;;11.63;6.00;;;;;;;-145.18;0.00;46941.69;5033041;28;20037;-61
2023/10/10 13:41:58;;;;;;;9.20;5.53;;;;;;;-145.18;0.00;46986.63;5032678;28;20029;-61
2023/10/10 13:44:24;;;;;;;12.20;5.28;;;;;;;-145.18;0.00;46988.56;5041446;28;20428;-61
2023/10/10 13:46:52;;;;;;;11.55;5.95;;;;;;;-145.18;0.00;46980.75;5044012;28;20112;-61
2023/10/10 13:49:18;;;;;;;9.57;5.68;;;;;;;-145.18;0.00;46984.66;5031480;28;20032;-61
2023/10/10 13:51:44;;;;;;;13.63;5.65;;;;;;;-145.18;0.00;47013.97;5032120;28;20081;-61
2023/10/10 13:54:13;;;;;;;11.77;5.88;;;;;;;-145.18;0.00;47041.31;5033010;28;20068;-61
2023/10/10 13:56:43;;;;;;;11.98;5.88;;;;;;;-145.18;0.00;47064.75;5031653;28;20021;-61